Leesburg, VA

4:57 PM EDT on August 17, 2019 (GMT -0400)
Leesburg Executive

Weather History for KJYO - April, 2019

Change the Weather History Date:

Friday, April 12, 2019

  Actual Average (KIAD) Record (KIAD)
Temperature  
Mean Temperature 58 °F -  
Max Temperature 66 °F 63 °F 87 °F (1977)
Min Temperature 50 °F 35 °F 23 °F (1982)
Degree Days  
Heating Degree Days 7    
Growing Degree Days 8 (Base 50)    
Moisture  
Dew Point 54 °F    
Average Humidity 93    
Maximum Humidity 100    
Minimum Humidity 76    
Precipitation  
Precipitation 0.00 in - - ()
Sea Level Pressure  
Sea Level Pressure 30.13 in    
Wind  
Wind Speed 6 mph (SE)    
Max Wind Speed 14 mph    
Max Gust Speed 18 mph    
Visibility 8 miles    
Events Thunderstorm    
Averages and records for this station are not official NWS values.
T = Trace of Precipitation, MM = Missing Value Source: NWS Daily Summary

Daily Weather History Graph

Daily Weather History Graph

Search for Another Location

Airport or City:

Astronomy

Apr. 12, 2019 Rise Set
Actual Time 6:38 AM EDT 7:44 PM EDT
Civil Twilight 6:10 AM EDT 8:11 PM EDT
Nautical Twilight 5:38 AM EDT 8:44 PM EDT
Astronomical Twilight 5:04 AM EDT 9:18 PM EDT
Moon 12:03 PM EDT (4/12) 2:11 AM EDT (4/12)
Length of Visible Light 14h 01m
Length of Day
13h 06m
Waxing Crescent, 49% of the Moon is Illuminated
Apr 12
Waxing Crescent
Apr 12
First Quarter
Apr 19
Full
Apr 26
Last Quarter
May 4
New

Hourly Weather History & Observations

Time (EDT) Temp. Dew Point Humidity Pressure Visibility Wind Dir Wind Speed Gust Speed Precip Events Conditions
12:15 AM 51.8 °F 44.6 °F 76% 30.19 in 10.0 mi ESE 6.9 mph - N/A   Scattered Clouds
12:35 AM 51.8 °F 44.6 °F 76% 30.19 in 10.0 mi ESE 9.2 mph - N/A   Overcast
12:55 AM 51.8 °F 44.6 °F 76% 30.19 in 10.0 mi ESE 8.1 mph - N/A   Overcast
1:15 AM 51.8 °F 44.6 °F 76% 30.19 in 10.0 mi ESE 6.9 mph - N/A   Overcast
1:35 AM 50.0 °F 44.6 °F 82% 30.18 in 10.0 mi SE 11.5 mph - N/A   Overcast
1:55 AM 50.0 °F 46.4 °F 87% 30.18 in 10.0 mi SE 6.9 mph - N/A   Overcast
2:15 AM 50.0 °F 46.4 °F 87% 30.18 in 10.0 mi SE 8.1 mph - N/A   Overcast
2:35 AM 50.0 °F 46.4 °F 87% 30.17 in 10.0 mi ESE 5.8 mph - N/A   Overcast
2:55 AM 50.0 °F 46.4 °F 87% 30.17 in 10.0 mi ESE 4.6 mph - N/A   Overcast
3:15 AM 50.0 °F 46.4 °F 87% 30.17 in 10.0 mi ESE 4.6 mph - N/A   Overcast
3:35 AM 50.0 °F 46.4 °F 87% 30.16 in 10.0 mi ESE 4.6 mph - N/A   Overcast
3:55 AM 50.0 °F 46.4 °F 87% 30.16 in 10.0 mi ESE 4.6 mph - N/A   Overcast
4:15 AM 50.0 °F 46.4 °F 87% 30.15 in 10.0 mi ESE 6.9 mph - N/A   Overcast
4:35 AM 50.0 °F 46.4 °F 87% 30.15 in 10.0 mi ESE 5.8 mph - N/A   Overcast
4:55 AM 50.0 °F 46.4 °F 87% 30.15 in 10.0 mi ESE 4.6 mph - N/A   Overcast
5:15 AM 50.0 °F 46.4 °F 87% 30.15 in 10.0 mi Calm Calm - N/A   Overcast
5:35 AM 50.0 °F 46.4 °F 87% 30.16 in 10.0 mi Calm Calm - N/A   Overcast
5:55 AM 50.0 °F 46.4 °F 87% 30.16 in 10.0 mi Calm Calm - N/A   Overcast
6:15 AM 50.0 °F 46.4 °F 87% 30.16 in 10.0 mi Calm Calm - N/A   Overcast
6:35 AM 50.0 °F 46.4 °F 87% 30.16 in 10.0 mi ENE 3.5 mph - N/A   Overcast
6:55 AM 50.0 °F 46.4 °F 87% 30.18 in 10.0 mi Calm Calm - N/A   Overcast
7:15 AM 50.0 °F 46.4 °F 87% 30.18 in 10.0 mi Calm Calm - N/A   Overcast
7:35 AM 50.0 °F 48.2 °F 94% 30.18 in 10.0 mi NE 3.5 mph - N/A   Overcast
7:55 AM 51.8 °F 48.2 °F 88% 30.18 in 10.0 mi East 4.6 mph - N/A   Overcast
8:15 AM 51.8 °F 48.2 °F 88% 30.18 in 10.0 mi ENE 4.6 mph - N/A   Overcast
8:35 AM 51.8 °F 50.0 °F 94% 30.18 in 10.0 mi East 3.5 mph - N/A   Overcast
8:55 AM 51.8 °F 50.0 °F 94% 30.18 in 10.0 mi SE 3.5 mph - N/A   Overcast
9:35 AM 53.6 °F 50.0 °F 88% 30.19 in 10.0 mi Calm Calm - N/A   Overcast
9:55 AM 53.6 °F 51.8 °F 94% 30.18 in 10.0 mi NE 4.6 mph - N/A   Overcast
10:15 AM 55.4 °F 51.8 °F 88% 30.18 in 10.0 mi Calm Calm - N/A   Overcast
10:35 AM 55.4 °F 51.8 °F 88% 30.18 in 10.0 mi NE 4.6 mph - N/A   Overcast
10:55 AM 59.0 °F 53.6 °F 82% 30.17 in 10.0 mi NE 3.5 mph - N/A   Overcast
11:15 AM 60.8 °F 55.4 °F 82% 30.16 in 10.0 mi East 4.6 mph - N/A   Overcast
11:35 AM 60.8 °F 55.4 °F 82% 30.15 in 10.0 mi ESE 3.5 mph - N/A   Overcast
12:15 PM 64.4 °F 57.2 °F 77% 30.13 in 10.0 mi SE 5.8 mph - N/A   Overcast
12:35 PM 66.2 °F 60.8 °F 83% 30.13 in 4.0 mi SSE 6.9 mph - N/A   Overcast
12:55 PM 62.6 °F 60.8 °F 94% 30.14 in 2.5 mi SSW 5.8 mph - N/A   Overcast
1:15 PM 60.8 °F 60.8 °F 100% 30.13 in 2.0 mi SW 4.6 mph - N/A   Overcast
1:35 PM 60.8 °F 60.8 °F 100% 30.13 in 1.8 mi South 4.6 mph - N/A   Overcast
1:55 PM 60.8 °F 60.8 °F 100% 30.12 in 2.5 mi South 10.4 mph - N/A   Overcast
2:15 PM 60.8 °F 60.8 °F 100% 30.12 in 2.0 mi SSW 6.9 mph - N/A   Overcast
2:35 PM 60.8 °F 60.8 °F 100% 30.10 in 2.5 mi South 5.8 mph - N/A   Overcast
2:55 PM 60.8 °F 60.8 °F 100% 30.10 in 3.0 mi SSE 5.8 mph - N/A   Overcast
3:15 PM 60.8 °F 60.8 °F 100% 30.09 in 2.5 mi SSE 4.6 mph - N/A   Overcast
3:35 PM 60.8 °F 60.8 °F 100% 30.07 in 3.0 mi SSE 6.9 mph - N/A   Overcast
3:55 PM 60.8 °F 60.8 °F 100% 30.07 in 3.0 mi South 11.5 mph - N/A   Overcast
4:15 PM 60.8 °F 60.8 °F 100% 30.07 in 1.8 mi South 9.2 mph - N/A   Overcast
4:35 PM 60.8 °F 60.8 °F 100% 30.06 in 2.5 mi South 10.4 mph - N/A   Overcast
4:55 PM 60.8 °F 60.8 °F 100% 30.05 in 2.0 mi South 8.1 mph - N/A   Overcast
5:15 PM 60.8 °F 60.8 °F 100% 30.05 in 2.5 mi SSE 13.8 mph 18.4 mph N/A   Overcast
5:35 PM 60.8 °F 60.8 °F 100% 30.06 in 3.0 mi South 12.7 mph - N/A   Overcast
5:55 PM 60.8 °F 60.8 °F 100% 30.06 in 3.0 mi South 10.4 mph - N/A   Overcast
6:15 PM 60.8 °F 60.8 °F 100% 30.06 in 7.0 mi South 9.2 mph - N/A   Overcast
6:35 PM 60.8 °F 60.8 °F 100% 30.06 in 4.0 mi SSW 4.6 mph - N/A   Overcast
6:55 PM 60.8 °F 60.8 °F 100% 30.07 in 4.0 mi Calm Calm - N/A Thunderstorm Thunderstorm
7:15 PM 60.8 °F 60.8 °F 100% 30.08 in 3.0 mi WSW 3.5 mph - N/A   Overcast
7:35 PM 59.0 °F 59.0 °F 100% 30.08 in 10.0 mi Calm Calm - N/A   Overcast
7:55 PM 59.0 °F 59.0 °F 100% 30.08 in 10.0 mi ESE 5.8 mph - N/A   Overcast
8:15 PM 59.0 °F 59.0 °F 100% 30.07 in 7.0 mi SE 3.5 mph - N/A   Overcast
8:35 PM 60.8 °F 60.8 °F 100% 30.07 in 7.0 mi SE 3.5 mph - N/A   Overcast
8:55 PM 60.8 °F 60.8 °F 100% 30.08 in 3.0 mi SSE 3.5 mph - N/A   Overcast
9:15 PM 60.8 °F 60.8 °F 100% 30.07 in 4.0 mi East 5.8 mph - N/A   Overcast
9:35 PM 60.8 °F 60.8 °F 100% 30.08 in 5.0 mi SE 4.6 mph - N/A   Overcast
9:55 PM 60.8 °F 60.8 °F 100% 30.08 in 7.0 mi SE 6.9 mph - N/A   Overcast
10:15 PM 60.8 °F 60.8 °F 100% 30.08 in 10.0 mi SE 5.8 mph - N/A   Overcast
10:35 PM 60.8 °F 60.8 °F 100% 30.07 in 7.0 mi SE 3.5 mph - N/A   Overcast
10:55 PM 60.8 °F 60.8 °F 100% 30.06 in 10.0 mi SE 4.6 mph - N/A   Overcast
11:15 PM 60.8 °F 60.8 °F 100% 30.05 in 10.0 mi South 9.2 mph - N/A   Overcast
11:35 PM 59.0 °F 59.0 °F 100% 30.05 in 10.0 mi South 4.6 mph - N/A   Overcast
11:55 PM 59.0 °F 59.0 °F 100% 30.05 in 10.0 mi South 5.8 mph - N/A   Overcast